createdAt,value
2023-03-27T00:00:16.748Z,7.93
2023-03-27T00:03:19.233Z,7.95
2023-03-27T00:06:22.224Z,8.80
2023-03-27T00:09:26.372Z,7.97
2023-03-27T00:12:29.941Z,8.23
2023-03-27T00:15:33.945Z,8.63
2023-03-27T00:18:36.665Z,7.13
2023-03-27T00:21:38.800Z,9.50
2023-03-27T00:24:41.018Z,8.55
2023-03-27T00:27:45.194Z,7.88
2023-03-27T00:30:48.647Z,7.72
2023-03-27T00:33:51.422Z,7.72
2023-03-27T00:36:54.041Z,7.07
2023-03-27T00:39:56.692Z,7.20
2023-03-27T00:42:59.558Z,7.53
2023-03-27T00:46:32.170Z,9.48
2023-03-27T00:49:37.168Z,7.47
2023-03-27T00:52:42.655Z,7.22
2023-03-27T00:55:48.817Z,7.20
2023-03-27T00:58:54.491Z,8.23
2023-03-27T01:01:57.973Z,7.38
2023-03-27T01:05:00.654Z,7.93
2023-03-27T01:08:03.914Z,11.00
2023-03-27T01:11:33.392Z,8.38
2023-03-27T01:14:51.248Z,6.78
2023-03-27T01:18:08.903Z,7.85
2023-03-27T01:21:31.849Z,6.47
2023-03-27T01:25:18.356Z,9.57
2023-03-27T01:28:23.725Z,7.47
2023-03-27T01:31:49.780Z,9.27
2023-03-27T01:35:02.506Z,8.10
2023-03-27T01:38:23.798Z,7.93
2023-03-27T01:41:31.998Z,7.18
2023-03-27T01:45:19.185Z,8.07
2023-03-27T01:48:53.940Z,7.47
2023-03-27T01:52:02.355Z,7.25
2023-03-27T01:55:10.016Z,7.93
2023-03-27T01:58:29.992Z,6.63
2023-03-27T02:01:37.683Z,7.35
2023-03-27T02:04:53.014Z,7.65
2023-03-27T02:08:04.639Z,7.63
2023-03-27T02:11:08.520Z,9.77
2023-03-27T02:14:27.146Z,7.50
2023-03-27T02:17:34.273Z,8.38
2023-03-27T02:20:38.917Z,7.80
2023-03-27T02:23:42.382Z,7.55
2023-03-27T02:26:52.885Z,6.80
2023-03-27T02:30:00.125Z,6.80
2023-03-27T02:33:46.901Z,7.32
2023-03-27T02:37:02.364Z,7.22
2023-03-27T02:40:59.802Z,6.68
2023-03-27T02:44:47.251Z,7.57
2023-03-27T02:48:00.982Z,6.82
2023-03-27T02:51:12.708Z,8.02
2023-03-27T02:54:22.113Z,7.63
2023-03-27T02:57:28.222Z,6.57
2023-03-27T03:00:57.808Z,8.05
2023-03-27T03:04:28.611Z,7.57
2023-03-27T03:07:54.517Z,7.50
2023-03-27T03:11:08.117Z,6.95
2023-03-27T03:14:10.305Z,8.40
2023-03-27T03:17:13.554Z,6.07
2023-03-27T03:20:17.220Z,7.32
2023-03-27T03:23:19.481Z,6.60
2023-03-27T03:26:21.868Z,7.18
2023-03-27T03:29:30.190Z,9.15
2023-03-27T03:32:44.925Z,6.78
2023-03-27T03:35:51.425Z,8.65
2023-03-27T03:39:02.758Z,6.35
2023-03-27T03:42:05.775Z,6.57
2023-03-27T03:45:09.308Z,8.18
2023-03-27T03:48:11.734Z,7.93
2023-03-27T03:51:13.962Z,6.93
2023-03-27T03:54:16.333Z,6.88
2023-03-27T03:57:19.667Z,6.90
2023-03-27T04:00:38.666Z,6.55
2023-03-27T04:03:46.361Z,6.75
2023-03-27T04:06:48.750Z,9.15
2023-03-27T04:09:51.722Z,6.57
2023-03-27T04:13:01.132Z,8.55
2023-03-27T04:16:06.556Z,6.55
2023-03-27T04:19:12.023Z,7.20
2023-03-27T04:22:22.935Z,6.90
2023-03-27T04:25:25.536Z,6.43
2023-03-27T04:28:30.482Z,7.32
2023-03-27T04:31:46.904Z,7.25
2023-03-27T04:35:11.161Z,7.40
2023-03-27T04:38:32.817Z,9.15
2023-03-27T04:41:35.548Z,8.07
2023-03-27T04:44:38.297Z,9.40
2023-03-27T04:47:41.095Z,8.77
2023-03-27T04:50:49.710Z,8.75
2023-03-27T04:54:07.612Z,11.45
2023-03-27T04:57:19.276Z,9.65
2023-03-27T05:00:24.076Z,12.55
2023-03-27T05:03:44.319Z,11.48
2023-03-27T05:06:53.688Z,10.43
2023-03-27T05:09:58.115Z,12.27
2023-03-27T05:13:04.897Z,12.57
2023-03-27T05:16:10.216Z,13.63
2023-03-27T05:19:19.568Z,12.10
2023-03-27T05:22:27.501Z,12.02
2023-03-27T05:25:39.671Z,15.18
2023-03-27T05:28:47.067Z,14.65
2023-03-27T05:31:50.732Z,12.52
2023-03-27T05:35:25.861Z,13.77
2023-03-27T05:38:29.292Z,14.63
2023-03-27T05:41:31.569Z,14.23
2023-03-27T05:44:33.963Z,13.77
2023-03-27T05:47:49.886Z,13.13
2023-03-27T05:50:52.381Z,14.13
2023-03-27T05:53:58.648Z,13.45
2023-03-27T05:57:15.011Z,13.30
2023-03-27T06:00:24.040Z,13.18
2023-03-27T06:03:30.670Z,13.27
2023-03-27T06:06:36.154Z,13.43
2023-03-27T06:09:39.895Z,15.05
2023-03-27T06:13:09.036Z,17.10
2023-03-27T06:16:23.738Z,13.55
2023-03-27T06:19:54.354Z,13.73
2023-03-27T06:22:59.831Z,13.90
2023-03-27T06:29:10.989Z,14.60
2023-03-27T06:32:20.459Z,12.30
2023-03-27T06:35:28.642Z,12.35
2023-03-27T06:38:38.140Z,11.80
2023-03-27T06:41:40.869Z,12.65
2023-03-27T06:45:12.478Z,14.32
2023-03-27T06:48:34.788Z,11.77
2023-03-27T06:51:39.385Z,11.68
2023-03-27T06:54:41.866Z,11.82
2023-03-27T06:57:46.476Z,12.38
2023-03-27T07:00:50.570Z,10.07
2023-03-27T07:03:53.381Z,10.80
2023-03-27T07:07:21.867Z,10.85
2023-03-27T07:10:26.128Z,10.30
2023-03-27T07:13:30.108Z,10.68
2023-03-27T07:16:35.316Z,11.30
2023-03-27T07:19:38.086Z,9.90
2023-03-27T07:22:44.515Z,9.88
2023-03-27T07:25:59.101Z,10.77
2023-03-27T07:29:22.544Z,9.27
2023-03-27T07:32:36.949Z,9.38
2023-03-27T07:35:45.510Z,9.57
2023-03-27T07:39:14.362Z,9.77
2023-03-27T07:42:16.649Z,9.40
2023-03-27T07:45:41.438Z,9.10
2023-03-27T07:48:43.665Z,10.45
2023-03-27T07:51:51.988Z,9.18
2023-03-27T07:54:54.370Z,7.90
2023-03-27T07:58:02.223Z,8.07
2023-03-27T08:01:08.030Z,6.43
2023-03-27T08:04:11.786Z,8.05
2023-03-27T08:07:16.588Z,6.50
2023-03-27T08:10:19.038Z,12.02
2023-03-27T08:13:32.356Z,9.18
2023-03-27T08:16:38.674Z,6.68
2023-03-27T08:19:41.743Z,6.90
2023-03-27T08:22:44.740Z,7.10
2023-03-27T08:26:09.548Z,6.10
2023-03-27T08:29:31.868Z,7.55
2023-03-27T08:32:34.251Z,8.40
2023-03-27T08:35:42.004Z,7.25
2023-03-27T08:38:45.377Z,9.10
2023-03-27T08:41:59.697Z,6.60
2023-03-27T08:45:38.958Z,6.53
2023-03-27T08:48:48.422Z,6.50
2023-03-27T08:51:59.794Z,5.50
2023-03-27T08:55:14.465Z,6.32
2023-03-27T08:58:25.037Z,5.47
2023-03-27T09:01:41.488Z,6.03
2023-03-27T09:05:08.953Z,6.40
2023-03-27T09:08:29.405Z,7.05
2023-03-27T09:11:40.883Z,5.45
2023-03-27T09:14:53.068Z,6.53
2023-03-27T09:18:01.187Z,5.13
2023-03-27T09:21:28.088Z,4.97
2023-03-27T09:24:39.508Z,6.07
2023-03-27T09:28:22.821Z,4.78
2023-03-27T09:31:40.301Z,5.70
2023-03-27T09:34:45.288Z,7.50
2023-03-27T09:37:54.288Z,6.07
2023-03-27T09:41:03.600Z,6.43
2023-03-27T09:44:25.803Z,5.00
2023-03-27T09:47:45.258Z,5.03
2023-03-27T09:50:49.516Z,5.28
2023-03-27T09:54:06.776Z,4.93
2023-03-27T09:57:13.006Z,6.10
2023-03-27T10:00:33.861Z,5.57
2023-03-27T10:03:58.361Z,4.50
2023-03-27T10:07:24.365Z,4.70
2023-03-27T10:10:46.092Z,4.95
2023-03-27T10:14:19.027Z,4.80
2023-03-27T10:17:38.623Z,4.57
2023-03-27T10:20:51.847Z,4.28
2023-03-27T10:24:07.305Z,5.53
2023-03-27T10:27:28.672Z,4.38
2023-03-27T10:31:13.711Z,4.50
2023-03-27T10:34:35.014Z,4.18
2023-03-27T10:37:56.346Z,6.72
2023-03-27T10:40:59.344Z,4.70
2023-03-27T10:44:19.285Z,3.80
2023-03-27T10:47:32.378Z,3.95
2023-03-27T10:50:53.680Z,4.22
2023-03-27T10:54:24.917Z,4.55
2023-03-27T10:57:39.732Z,3.75
2023-03-27T11:00:49.656Z,4.25
2023-03-27T11:04:23.606Z,7.72
2023-03-27T11:07:37.998Z,3.60
2023-03-27T11:10:47.310Z,4.10
2023-03-27T11:14:02.707Z,3.88
2023-03-27T11:17:08.596Z,3.60
2023-03-27T11:20:47.468Z,3.33
2023-03-27T11:23:57.912Z,3.60
2023-03-27T11:27:35.947Z,3.42
2023-03-27T11:30:56.456Z,5.30
2023-03-27T11:34:28.756Z,3.75
2023-03-27T11:37:54.009Z,3.28
2023-03-27T11:40:58.452Z,3.28
2023-03-27T11:44:01.270Z,3.92
2023-03-27T11:48:10.859Z,3.97
2023-03-27T11:51:30.725Z,3.47
2023-03-27T11:55:07.270Z,3.63
2023-03-27T11:58:40.806Z,3.30
2023-03-27T12:02:13.344Z,3.10
2023-03-27T12:05:21.764Z,3.15
2023-03-27T12:08:47.307Z,3.95
2023-03-27T12:12:04.712Z,2.80
2023-03-27T12:15:27.509Z,2.95
2023-03-27T12:18:48.050Z,2.85
2023-03-27T12:22:23.862Z,4.75
2023-03-27T12:25:40.458Z,3.03
2023-03-27T12:29:39.066Z,3.42
2023-03-27T12:32:47.420Z,2.72
2023-03-27T12:35:52.641Z,3.40
2023-03-27T12:38:56.626Z,3.28
2023-03-27T12:42:13.960Z,2.13
2023-03-27T12:45:27.010Z,2.70
2023-03-27T12:48:31.452Z,2.92
2023-03-27T12:51:58.489Z,2.38
2023-03-27T12:55:32.532Z,2.72
2023-03-27T12:58:52.577Z,4.03
2023-03-27T13:02:06.465Z,2.88
2023-03-27T13:05:34.681Z,2.67
2023-03-27T13:09:02.366Z,2.33
2023-03-27T13:12:30.163Z,2.13
2023-03-27T13:15:56.002Z,2.50
2023-03-27T13:19:16.904Z,2.17
2023-03-27T13:22:49.101Z,1.73
2023-03-27T13:26:10.667Z,2.35
2023-03-27T13:29:23.245Z,2.15
2023-03-27T13:32:41.353Z,2.00
2023-03-27T13:36:06.271Z,1.30
2023-03-27T13:39:21.320Z,2.53
2023-03-27T13:42:33.480Z,1.52
2023-03-27T13:45:50.108Z,1.93
2023-03-27T13:49:35.142Z,1.83
2023-03-27T13:55:51.441Z,1.13
2023-03-27T13:59:42.006Z,1.70
2023-03-27T14:03:27.768Z,1.00
2023-03-27T14:07:10.826Z,1.40
2023-03-27T14:11:01.327Z,1.83
2023-03-27T14:14:19.830Z,1.15
2023-03-27T14:17:41.525Z,1.13
2023-03-27T14:20:46.001Z,1.10
2023-03-27T14:24:19.753Z,2.08
2023-03-27T14:27:27.987Z,1.45
2023-03-27T14:30:47.714Z,0.98
2023-03-27T14:34:17.053Z,1.38
2023-03-27T14:37:36.283Z,1.00
2023-03-27T14:41:04.495Z,2.03
2023-03-27T14:44:36.440Z,0.90
2023-03-27T14:48:08.071Z,1.73
2023-03-27T14:51:25.368Z,1.05
2023-03-27T14:54:29.100Z,0.93
2023-03-27T15:00:43.398Z,0.93
2023-03-27T15:03:47.466Z,1.13
2023-03-27T15:06:50.256Z,1.38
2023-03-27T15:10:28.207Z,1.48
2023-03-27T15:13:36.739Z,1.27
2023-03-27T15:16:44.630Z,0.77
2023-03-27T15:19:56.672Z,1.13
2023-03-27T15:23:19.366Z,0.88
2023-03-27T15:26:25.781Z,0.80
2023-03-27T15:29:42.825Z,0.90
2023-03-27T15:32:50.893Z,0.77
2023-03-27T15:35:56.655Z,0.75
2023-03-27T15:39:01.061Z,0.93
2023-03-27T15:42:12.564Z,0.77
2023-03-27T15:45:17.138Z,0.85
2023-03-27T15:48:29.208Z,0.57
2023-03-27T15:51:31.958Z,0.88
2023-03-27T15:54:36.970Z,0.68
2023-03-27T15:57:40.654Z,0.70
2023-03-27T16:00:48.336Z,0.63
2023-03-27T16:03:51.797Z,0.93
2023-03-27T16:07:25.324Z,0.60
2023-03-27T16:10:32.746Z,1.27
2023-03-27T16:13:52.072Z,0.60
2023-03-27T16:17:20.744Z,0.90
2023-03-27T16:20:22.990Z,0.68
2023-03-27T16:23:25.177Z,0.75
2023-03-27T16:26:31.875Z,1.17
2023-03-27T16:29:34.084Z,1.00
2023-03-27T16:32:37.176Z,0.47
2023-03-27T16:35:39.837Z,2.67
2023-03-27T16:38:43.959Z,0.90
2023-03-27T16:41:46.533Z,0.65
2023-03-27T16:44:48.948Z,0.57
2023-03-27T16:47:53.341Z,1.45
2023-03-27T16:50:55.807Z,0.98
2023-03-27T16:53:58.084Z,0.98
2023-03-27T16:57:01.055Z,1.20
2023-03-27T17:00:03.689Z,0.75
2023-03-27T17:03:06.167Z,1.50
2023-03-27T17:06:10.581Z,0.90
2023-03-27T17:09:13.355Z,1.00
2023-03-27T17:12:15.621Z,0.90
2023-03-27T17:15:17.957Z,1.83
2023-03-27T17:18:20.196Z,0.90
2023-03-27T17:21:23.954Z,1.17
2023-03-27T17:24:26.178Z,1.25
2023-03-27T17:27:28.521Z,1.13
2023-03-27T17:30:39.565Z,0.70
2023-03-27T17:33:43.404Z,0.63
2023-03-27T17:36:52.522Z,0.70
2023-03-27T17:39:56.596Z,0.82
2023-03-27T17:42:58.783Z,1.15
2023-03-27T17:46:01.586Z,1.13
2023-03-27T17:49:04.465Z,1.08
2023-03-27T17:52:11.351Z,1.55
2023-03-27T17:55:14.057Z,1.38
2023-03-27T17:58:18.963Z,1.05
2023-03-27T18:01:23.336Z,1.00
2023-03-27T18:04:26.157Z,1.92
2023-03-27T18:07:28.398Z,0.88
2023-03-27T18:10:30.851Z,2.47
2023-03-27T18:13:33.087Z,0.88
2023-03-27T18:16:36.033Z,1.23
2023-03-27T18:19:38.274Z,1.05
2023-03-27T18:22:40.776Z,1.50
2023-03-27T18:25:43.321Z,1.17
2023-03-27T18:28:45.571Z,2.38
2023-03-27T18:31:48.330Z,3.53
2023-03-27T18:34:51.308Z,0.80
2023-03-27T18:37:53.532Z,2.72
2023-03-27T18:40:57.131Z,2.45
2023-03-27T18:43:59.597Z,2.25
2023-03-27T18:47:01.904Z,2.72
2023-03-27T18:50:05.631Z,1.55
2023-03-27T18:53:07.897Z,1.20
2023-03-27T18:56:10.542Z,1.05
2023-03-27T18:59:14.662Z,1.83
2023-03-27T19:02:17.511Z,1.30
2023-03-27T19:05:19.739Z,1.00
2023-03-27T19:08:22.286Z,2.53
2023-03-27T19:11:24.529Z,1.60
2023-03-27T19:14:38.625Z,2.78
2023-03-27T19:18:06.534Z,2.10
2023-03-27T19:21:17.968Z,2.33
2023-03-27T19:24:24.407Z,1.67
2023-03-27T19:27:28.564Z,2.45
2023-03-27T19:30:42.078Z,2.33
2023-03-27T19:33:44.609Z,1.73
2023-03-27T19:36:47.020Z,2.25
2023-03-27T19:39:51.561Z,1.70
2023-03-27T19:42:53.854Z,2.20
2023-03-27T19:46:14.903Z,1.73
2023-03-27T19:49:18.256Z,2.28
2023-03-27T19:52:27.118Z,2.47
2023-03-27T19:55:29.416Z,2.55
2023-03-27T19:58:31.781Z,1.63
2023-03-27T20:01:34.173Z,1.92
2023-03-27T20:04:36.373Z,1.85
2023-03-27T20:07:38.679Z,1.20
2023-03-27T20:10:40.964Z,2.70
2023-03-27T20:13:55.503Z,2.00
2023-03-27T20:16:58.814Z,2.00
2023-03-27T20:20:01.030Z,2.05
2023-03-27T20:23:03.235Z,1.67
2023-03-27T20:26:05.496Z,1.60
2023-03-27T20:29:13.823Z,1.95
2023-03-27T20:32:16.479Z,2.22
2023-03-27T20:35:24.450Z,1.63
2023-03-27T20:38:30.968Z,1.95
2023-03-27T20:41:34.570Z,1.70
2023-03-27T20:44:36.777Z,3.08
2023-03-27T20:47:43.285Z,2.25
2023-03-27T20:50:51.521Z,1.40
2023-03-27T20:53:56.231Z,1.50
2023-03-27T20:56:58.525Z,1.60
2023-03-27T21:00:01.012Z,2.03
2023-03-27T21:03:03.375Z,2.20
2023-03-27T21:06:20.773Z,1.55
2023-03-27T21:09:26.998Z,1.42
2023-03-27T21:12:29.545Z,1.77
2023-03-27T21:15:33.666Z,2.65
2023-03-27T21:18:36.066Z,1.70
2023-03-27T21:21:39.000Z,1.60
2023-03-27T21:24:41.221Z,2.03
2023-03-27T21:27:43.609Z,1.58
2023-03-27T21:30:48.709Z,3.72
2023-03-27T21:33:51.408Z,2.92
2023-03-27T21:36:53.629Z,1.52
2023-03-27T21:39:55.945Z,3.10
2023-03-27T21:42:59.473Z,1.65
2023-03-27T21:46:03.795Z,3.55
2023-03-27T21:49:06.221Z,1.85
2023-03-27T21:52:08.773Z,2.10
2023-03-27T21:55:11.253Z,2.42
2023-03-27T21:58:13.486Z,2.17
2023-03-27T22:01:15.719Z,1.65
2023-03-27T22:04:19.358Z,1.55
2023-03-27T22:07:23.589Z,1.73
2023-03-27T22:10:26.020Z,1.83
2023-03-27T22:13:28.434Z,1.63
2023-03-27T22:16:31.066Z,1.85
2023-03-27T22:19:33.301Z,2.10
2023-03-27T22:22:36.466Z,1.50
2023-03-27T22:25:38.620Z,1.85
2023-03-27T22:28:40.957Z,1.75
2023-03-27T22:31:43.276Z,1.95
2023-03-27T22:34:48.630Z,1.65
2023-03-27T22:37:50.850Z,1.90
2023-03-27T22:40:53.075Z,1.67
2023-03-27T22:43:56.059Z,1.77
2023-03-27T22:46:59.981Z,2.28
2023-03-27T22:50:02.686Z,1.58
2023-03-27T22:53:04.978Z,1.63
2023-03-27T22:56:08.248Z,1.40
2023-03-27T22:59:10.774Z,2.50
2023-03-27T23:02:13.054Z,3.55
2023-03-27T23:05:15.756Z,2.17
2023-03-27T23:08:20.627Z,1.45
2023-03-27T23:11:23.015Z,3.97
2023-03-27T23:14:25.256Z,1.95
2023-03-27T23:17:27.554Z,2.25
2023-03-27T23:20:30.161Z,1.90
2023-03-27T23:23:34.610Z,1.70
2023-03-27T23:26:36.811Z,2.17
2023-03-27T23:29:39.013Z,2.13
2023-03-27T23:32:41.747Z,2.33
2023-03-27T23:35:43.948Z,1.80
2023-03-27T23:38:46.191Z,3.47
2023-03-27T23:41:48.413Z,2.67
2023-03-27T23:44:50.675Z,3.53
2023-03-27T23:47:52.854Z,1.90
2023-03-27T23:50:56.278Z,3.78
2023-03-27T23:53:58.443Z,2.00
2023-03-27T23:57:00.741Z,1.67
